Time;durP1;ratioP1;P1;durP2;ratioP2;P2;SDS_P1;SDS_P2;PMS_P1;PMS_P2;Temp;Humidity;BMP_temperature;BMP_pressure;BME280_temperature;BME280_humidity;BME280_pressure;Samples;Min_cycle;Max_cycle;Signal;HPM_P1;HPM_P2
2023/04/08 00:00:37;;;;;;;27.33;17.40;;;5.00;99.90;;;-144.05;86.40;56944.41;5075925;28;20348;-79
2023/04/08 00:03:03;;;;;;;28.83;17.35;;;4.90;99.90;;;-144.05;86.37;56944.41;5092646;28;20024;-77
2023/04/08 00:05:29;;;;;;;28.15;17.92;;;4.90;99.90;;;-144.05;86.54;56957.16;5093765;28;20028;-78
2023/04/08 00:07:55;;;;;;;26.88;17.23;;;4.90;99.90;;;-144.05;86.37;56974.16;5093229;28;20036;-79
2023/04/08 00:10:21;;;;;;;23.60;16.65;;;4.90;99.90;;;-144.05;86.50;56942.28;5093155;28;20073;-80
2023/04/08 00:12:47;;;;;;;25.00;17.20;;;4.90;99.90;;;-144.05;86.59;56950.78;5093677;28;20392;-80
2023/04/08 00:15:13;;;;;;;22.23;15.82;;;4.90;99.90;;;-144.05;86.64;56948.66;5092121;28;20024;-80
2023/04/08 00:17:40;;;;;;;24.90;16.58;;;4.80;99.90;;;-144.05;86.54;56931.66;5093669;28;20074;-78
2023/04/08 00:20:07;;;;;;;29.13;17.17;;;4.80;99.90;;;-144.05;86.64;56944.41;5091734;28;20024;-79
2023/04/08 00:22:40;;;;;;;26.08;16.95;;;4.80;99.90;;;-144.05;86.83;56952.91;5093633;28;20441;-80
2023/04/08 00:25:08;;;;;;;25.65;16.50;;;4.80;99.90;;;-144.05;86.43;56935.91;5095935;28;20036;-81
2023/04/08 00:27:34;;;;;;;26.25;15.80;;;4.80;99.90;;;-144.05;86.34;56933.78;5093393;28;20486;-79
2023/04/08 00:30:00;;;;;;;26.25;16.20;;;4.80;99.90;;;-144.05;86.19;56963.53;5091255;28;20522;-79
2023/04/08 00:32:27;;;;;;;24.17;15.40;;;4.70;99.90;;;-144.05;86.20;56957.16;5090098;28;20081;-79
2023/04/08 00:34:53;;;;;;;22.75;17.02;;;4.60;99.90;;;-144.05;86.39;56929.53;5092103;28;20049;-80
2023/04/08 00:37:20;;;;;;;25.23;16.08;;;4.60;99.90;;;-144.05;86.22;56940.16;5091834;28;20549;-80
2023/04/08 00:39:46;;;;;;;33.35;16.98;;;4.60;99.90;;;-144.05;86.13;56976.28;5091336;28;20036;-80
2023/04/08 00:42:11;;;;;;;28.05;17.30;;;4.50;99.90;;;-144.05;86.01;56948.66;5092896;28;20028;-79
2023/04/08 00:44:37;;;;;;;46.80;20.02;;;4.50;99.90;;;-144.05;85.99;56948.66;5074952;28;20028;-82
2023/04/08 00:47:03;;;;;;;22.42;16.30;;;4.50;99.90;;;-144.05;86.14;56976.28;5093378;28;20024;-78
2023/04/08 00:49:32;;;;;;;24.23;17.30;;;4.60;99.90;;;-144.05;86.37;56967.78;5096913;28;20050;-77
2023/04/08 00:51:59;;;;;;;24.85;16.38;;;4.60;99.90;;;-144.05;86.35;56952.91;5095718;28;20043;-81
2023/04/08 00:54:25;;;;;;;26.88;17.67;;;4.60;99.90;;;-144.05;86.38;56959.28;5095255;28;20030;-80
2023/04/08 00:56:51;;;;;;;25.15;17.23;;;4.60;99.90;;;-144.05;86.03;56955.03;5094828;28;20031;-80
2023/04/08 00:59:17;;;;;;;26.88;17.58;;;4.70;99.90;;;-144.05;86.06;56959.28;5093616;28;20024;-78
2023/04/08 01:01:58;;;;;;;25.13;16.63;;;4.70;99.90;;;-144.05;86.49;56927.41;5093632;28;20036;-79
2023/04/08 01:04:55;;;;;;;27.90;17.55;;;4.70;99.90;;;-144.05;86.39;56965.66;5095042;28;20495;-79
2023/04/08 01:07:39;;;;;;;30.88;18.65;;;4.80;99.90;;;-144.05;86.17;56933.78;5093690;28;20068;-79
2023/04/08 01:10:30;;;;;;;39.45;20.02;;;4.80;99.90;;;-144.05;86.11;56948.66;5092860;28;20028;-80
2023/04/08 01:13:07;;;;;;;32.63;18.83;;;4.80;99.90;;;-144.05;86.09;56955.03;5094390;28;20086;-79
2023/04/08 01:15:39;;;;;;;31.55;17.52;;;4.80;99.90;;;-144.05;86.31;56940.16;5093332;28;20073;-78
2023/04/08 01:18:11;;;;;;;30.50;17.98;;;4.90;99.90;;;-144.05;86.13;56961.41;5076091;28;20028;-79
2023/04/08 01:20:41;;;;;;;23.48;15.85;;;4.90;99.90;;;-144.05;86.06;56948.66;5094243;28;20333;-79
2023/04/08 01:23:35;;;;;;;44.90;19.85;;;4.80;99.90;;;-144.05;85.78;56948.66;5076202;28;20028;-78
2023/04/08 01:26:00;;;;;;;33.40;18.48;;;4.80;99.90;;;-144.05;85.82;56955.03;5094057;28;20161;-78
2023/04/08 01:28:30;;;;;;;28.60;17.67;;;4.70;99.90;;;-144.05;85.91;56942.28;5096068;28;20428;-80
2023/04/08 01:31:00;;;;;;;29.83;17.85;;;4.70;99.90;;;-144.05;86.03;56957.16;5095968;28;20031;-80
2023/04/08 01:33:30;;;;;;;30.10;17.88;;;4.70;99.90;;;-144.05;86.27;56963.53;5094595;28;20058;-80
2023/04/08 01:36:00;;;;;;;23.30;15.40;;;4.70;99.90;;;-144.05;86.17;56950.78;5099628;28;20028;-79
2023/04/08 01:38:28;;;;;;;55.88;21.63;;;4.80;99.90;;;-144.05;86.09;56950.78;5093314;28;20448;-80
2023/04/08 01:40:56;;;;;;;28.23;18.10;;;4.80;99.90;;;-144.05;86.02;56925.28;5094393;28;20078;-79
2023/04/08 01:43:25;;;;;;;27.63;17.67;;;4.80;99.90;;;-144.05;86.17;56959.28;5092739;28;20028;-79
2023/04/08 01:45:56;;;;;;;25.75;17.65;;;4.80;99.90;;;-144.05;86.11;56938.03;5094251;28;20107;-80
2023/04/08 01:48:25;;;;;;;31.98;18.58;;;4.90;99.90;;;-144.05;86.05;56950.78;5094252;28;20028;-77
2023/04/08 01:50:53;;;;;;;27.58;17.30;;;4.90;99.90;;;-144.05;86.07;56944.41;5094502;28;20107;-80
2023/04/08 01:53:19;;;;;;;23.40;15.77;;;4.80;99.90;;;-144.05;86.07;56961.41;5075709;28;20067;-80
2023/04/08 01:55:51;;;;;;;36.15;19.55;;;4.90;99.90;;;-144.05;86.02;56974.16;5092809;28;20048;-80
2023/04/08 01:58:21;;;;;;;26.55;17.30;;;4.90;99.90;;;-144.05;86.00;56952.91;5093966;28;20107;-78
2023/04/08 02:00:52;;;;;;;34.22;18.27;;;4.80;99.90;;;-144.05;86.18;56976.28;5094593;28;20050;-80
2023/04/08 02:03:24;;;;;;;30.58;19.08;;;4.80;99.90;;;-144.05;86.17;56952.91;5075784;28;20542;-80
2023/04/08 02:05:50;;;;;;;51.72;20.20;;;4.80;99.90;;;-144.05;86.15;56929.53;5093854;28;20032;-80
2023/04/08 02:08:16;;;;;;;30.95;18.80;;;4.80;99.90;;;-144.05;86.15;56959.28;5092278;28;20062;-79
2023/04/08 02:10:41;;;;;;;51.55;21.58;;;4.80;99.90;;;-144.05;86.18;56942.28;5093029;28;20028;-78
2023/04/08 02:13:08;;;;;;;42.20;19.65;;;4.80;99.90;;;-144.05;86.19;56944.41;5092541;28;20032;-79
2023/04/08 02:15:40;;;;;;;26.75;17.75;;;4.80;99.90;;;-144.05;86.12;56974.16;5075451;28;20590;-79
2023/04/08 02:18:21;;;;;;;39.30;18.70;;;4.90;99.90;;;-144.05;86.15;56935.91;5075159;28;20039;-78
2023/04/08 02:20:58;;;;;;;73.38;23.30;;;4.80;99.90;;;-144.05;86.34;56955.03;5093528;28;20043;-80
2023/04/08 02:23:28;;;;;;;59.50;22.20;;;4.90;99.90;;;-144.05;86.30;56959.28;5093367;28;20430;-78
2023/04/08 02:25:56;;;;;;;42.13;20.02;;;4.90;99.90;;;-144.05;86.11;56961.41;5076134;28;20028;-79
2023/04/08 02:28:25;;;;;;;90.15;24.42;;;4.90;99.90;;;-144.05;85.96;56929.53;5074543;28;20036;-81
2023/04/08 02:30:54;;;;;;;46.58;21.15;;;4.90;99.90;;;-144.05;85.82;56938.03;5092783;28;20119;-77
2023/04/08 02:33:22;;;;;;;49.42;20.20;;;4.80;99.90;;;-144.05;85.86;56944.41;5074449;28;20029;-80
2023/04/08 02:35:54;;;;;;;35.88;19.80;;;4.80;99.90;;;-144.05;86.00;56955.03;5075939;28;20031;-79
2023/04/08 02:38:22;;;;;;;49.22;21.65;;;4.80;99.90;;;-144.05;85.73;56935.91;5095395;28;20020;-82
2023/04/08 02:40:50;;;;;;;65.78;23.10;;;4.70;99.90;;;-144.05;86.03;56950.78;5094253;28;20513;-82
2023/04/08 02:43:16;;;;;;;59.40;22.02;;;4.70;99.90;;;-144.05;85.91;56950.78;5096541;28;20028;-80
2023/04/08 02:45:44;;;;;;;58.72;23.15;;;4.70;99.90;;;-144.05;85.92;56957.16;5095637;28;20119;-80
2023/04/08 02:48:10;;;;;;;38.30;20.23;;;4.70;99.90;;;-144.05;85.91;56955.03;5095711;28;20111;-81
2023/04/08 02:50:36;;;;;;;47.13;21.45;;;4.70;99.90;;;-144.05;86.12;56946.53;5094593;28;20024;-82
2023/04/08 02:53:03;;;;;;;74.03;24.67;;;4.70;99.90;;;-144.05;85.77;56972.03;5095857;28;20028;-81
2023/04/08 02:55:29;;;;;;;58.05;21.33;;;4.70;99.90;;;-144.05;86.05;56967.78;5084517;28;20234;-80
2023/04/08 02:57:54;;;;;;;34.95;18.75;;;4.70;99.90;;;-144.05;85.99;56957.16;5109220;28;20100;-81
2023/04/08 03:00:20;;;;;;;29.85;17.85;;;4.70;99.90;;;-144.05;85.86;56942.28;5097817;28;20051;-80
2023/04/08 03:02:46;;;;;;;35.08;19.15;;;4.70;99.90;;;-144.05;85.95;56967.78;5096372;28;20036;-81
2023/04/08 03:05:12;;;;;;;43.15;20.40;;;4.80;99.90;;;-144.05;85.92;56961.41;5078449;28;20531;-79
2023/04/08 03:07:38;;;;;;;30.30;18.50;;;4.80;99.90;;;-144.05;85.98;56933.78;5095655;28;20391;-79
2023/04/08 03:10:05;;;;;;;45.78;19.92;;;4.90;99.90;;;-144.05;85.77;56959.28;5095407;28;20048;-81
2023/04/08 03:12:31;;;;;;;69.72;23.75;;;4.80;99.90;;;-144.05;86.01;56963.53;5096864;28;20403;-81
2023/04/08 03:14:57;;;;;;;28.63;17.00;;;4.80;99.90;;;-144.05;85.56;56933.78;5095800;28;20402;-80
2023/04/08 03:17:23;;;;;;;31.27;17.65;;;4.80;99.90;;;-144.05;85.84;56942.28;5095289;28;20055;-82
2023/04/08 03:19:49;;;;;;;53.05;19.55;;;4.80;99.90;;;-144.05;85.92;56938.03;5077634;28;20028;-81
2023/04/08 03:22:15;;;;;;;25.83;17.33;;;4.80;99.90;;;-144.05;85.74;56955.03;5094819;28;20050;-81
2023/04/08 03:24:41;;;;;;;45.47;18.60;;;4.80;99.90;;;-144.05;85.82;56944.41;5076553;28;20131;-82
2023/04/08 03:27:07;;;;;;;42.65;19.02;;;4.80;99.90;;;-144.05;85.74;56942.28;5093055;28;20071;-81
2023/04/08 03:29:33;;;;;;;79.63;21.75;;;4.70;99.90;;;-144.05;85.57;56961.41;5092946;28;20061;-81
2023/04/08 03:31:59;;;;;;;33.70;17.73;;;4.70;99.90;;;-144.05;85.84;56946.53;5075742;28;20051;-81
2023/04/08 03:34:25;;;;;;;25.80;17.60;;;4.70;99.90;;;-144.05;85.89;56942.28;5094058;28;20464;-80
2023/04/08 03:36:50;;;;;;;25.05;17.15;;;4.70;99.90;;;-144.05;86.00;56984.78;5075962;28;20032;-83
2023/04/08 03:39:16;;;;;;;71.05;21.92;;;4.70;99.90;;;-144.05;85.86;56972.03;5093614;28;20028;-80
2023/04/08 03:41:42;;;;;;;30.67;15.95;;;4.70;99.90;;;-144.05;85.94;56931.66;5093531;28;20433;-80
2023/04/08 03:44:08;;;;;;;38.85;18.30;;;4.60;99.90;;;-144.05;85.72;56963.53;5093885;28;20039;-80
2023/04/08 03:46:34;;;;;;;35.83;18.38;;;4.60;99.90;;;-144.05;85.44;56972.03;5093538;28;20024;-82
2023/04/08 03:49:00;;;;;;;36.53;18.50;;;4.60;99.90;;;-144.05;85.67;56969.91;5092189;28;20031;-82
2023/04/08 03:51:27;;;;;;;24.15;16.85;;;4.60;99.90;;;-144.05;85.68;56944.41;5092239;28;20047;-81
2023/04/08 03:53:53;;;;;;;29.15;18.35;;;4.60;99.90;;;-144.05;85.82;56967.78;5074820;28;20058;-79
2023/04/08 03:56:19;;;;;;;52.65;20.95;;;4.60;99.90;;;-144.05;85.85;56955.03;5092300;28;20024;-80
2023/04/08 03:58:45;;;;;;;29.40;18.25;;;4.60;99.90;;;-144.05;85.66;56948.66;5092833;28;20034;-80
2023/04/08 04:01:11;;;;;;;40.67;18.83;;;4.70;99.90;;;-144.05;85.64;56986.91;5075671;28;20122;-81
2023/04/08 04:03:36;;;;;;;57.88;19.70;;;4.60;99.90;;;-144.05;85.86;56950.78;5094246;28;20549;-83
2023/04/08 04:06:02;;;;;;;71.32;20.20;;;4.60;99.90;;;-144.05;85.76;56984.78;5091571;28;20024;-82
2023/04/08 04:08:28;;;;;;;42.60;19.48;;;4.60;99.90;;;-144.05;85.79;56978.41;5074609;28;20050;-81
2023/04/08 04:10:54;;;;;;;64.55;20.83;;;4.60;99.90;;;-144.05;85.75;56972.03;5091910;28;20039;-83
2023/04/08 04:13:20;;;;;;;30.92;17.70;;;4.50;99.90;;;-144.05;85.69;56948.66;5074992;28;20035;-82
2023/04/08 04:15:46;;;;;;;46.58;20.25;;;4.50;99.90;;;-144.05;85.47;56967.78;5093025;28;20074;-82
2023/04/08 04:18:12;;;;;;;68.30;21.50;;;4.50;99.90;;;-144.05;85.80;56961.41;5092582;28;20495;-81
2023/04/08 04:20:42;;;;;;;59.38;20.10;;;4.50;99.90;;;-144.05;85.53;56955.03;5093393;28;20403;-80
2023/04/08 04:23:09;;;;;;;64.18;20.52;;;4.40;99.90;;;-144.05;85.79;56976.28;5079023;28;20428;-81
2023/04/08 04:25:35;;;;;;;40.42;19.25;;;4.40;99.90;;;-144.05;85.71;56982.66;5097182;28;20032;-83
2023/04/08 04:28:02;;;;;;;35.50;18.58;;;4.40;99.90;;;-144.05;85.45;56955.03;5097007;28;20084;-80
2023/04/08 04:30:28;;;;;;;28.75;17.83;;;4.40;99.90;;;-144.05;85.70;56955.03;5079066;28;20388;-80
2023/04/08 04:32:55;;;;;;;62.17;21.02;;;4.50;99.90;;;-144.05;85.57;56938.03;5097174;28;20368;-78
2023/04/08 04:35:21;;;;;;;98.95;22.60;;;4.40;99.90;;;-144.05;85.66;56946.53;5078867;28;20059;-81
2023/04/08 04:37:49;;;;;;;35.47;18.48;;;4.40;99.90;;;-144.05;85.39;56967.78;5097823;28;20043;-82
2023/04/08 04:40:14;;;;;;;67.28;21.00;;;4.50;99.90;;;-144.05;85.59;56967.78;5095385;28;20024;-81
2023/04/08 04:42:40;;;;;;;59.97;19.55;;;4.40;99.90;;;-144.05;85.36;56965.66;5078803;28;20051;-80
2023/04/08 04:45:08;;;;;;;28.23;16.88;;;4.50;99.90;;;-144.05;85.59;56959.28;5098138;28;20063;-82
2023/04/08 04:47:34;;;;;;;34.97;17.42;;;4.50;99.90;;;-144.05;85.76;56948.66;5098770;28;20391;-83
2023/04/08 04:50:00;;;;;;;34.20;18.05;;;4.50;99.90;;;-144.05;85.74;56950.78;5099262;28;20024;-80
2023/04/08 04:52:26;;;;;;;44.67;16.92;;;4.50;99.90;;;-144.05;85.56;56965.66;5097352;28;20028;-82
2023/04/08 04:54:52;;;;;;;52.22;19.50;;;4.50;99.90;;;-144.05;85.57;56978.41;5098841;28;20077;-84
2023/04/08 04:57:18;;;;;;;89.25;21.75;;;4.50;99.90;;;-144.05;85.32;56955.03;5102608;28;20035;-81
2023/04/08 04:59:43;;;;;;;40.95;17.52;;;4.50;99.90;;;-144.05;85.42;56955.03;5116608;28;20165;-76
2023/04/08 05:02:09;;;;;;;60.05;19.38;;;4.50;99.90;;;-144.05;85.47;56961.41;5116005;28;20032;-78
2023/04/08 05:04:35;;;;;;;51.15;18.30;;;4.50;99.90;;;-144.05;85.44;56976.28;5116394;28;20020;-78
2023/04/08 05:07:01;;;;;;;53.80;18.42;;;4.50;99.90;;;-144.05;85.58;56965.66;5098072;28;20028;-81
2023/04/08 05:09:29;;;;;;;38.55;17.23;;;4.50;99.90;;;-144.05;85.49;56942.28;5114737;28;20062;-79
2023/04/08 05:11:55;;;;;;;88.35;22.90;;;4.60;99.90;;;-144.05;85.49;56946.53;5104051;28;20036;-78
2023/04/08 05:14:21;;;;;;;77.15;20.15;;;4.50;99.90;;;-144.05;85.44;56965.66;5103931;28;20479;-80
2023/04/08 05:16:47;;;;;;;65.50;18.42;;;4.60;99.90;;;-144.05;85.61;56961.41;5098287;28;20038;-80
2023/04/08 05:19:13;;;;;;;46.40;16.63;;;4.60;99.90;;;-144.05;85.67;56955.03;5097775;28;20070;-78
2023/04/08 05:21:39;;;;;;;104.60;22.25;;;4.60;99.90;;;-144.05;85.70;56959.28;5099026;28;20028;-78
2023/04/08 05:24:05;;;;;;;44.05;16.90;;;4.70;99.90;;;-144.05;85.32;56965.66;5080936;28;20039;-79
2023/04/08 05:26:31;;;;;;;59.05;17.38;;;4.60;99.90;;;-144.05;85.80;56933.78;5098326;28;20036;-81
2023/04/08 05:28:57;;;;;;;34.63;16.17;;;4.70;99.90;;;-144.05;85.74;56940.16;5100281;28;20017;-79
2023/04/08 05:31:22;;;;;;;77.30;20.77;;;4.70;99.90;;;-144.05;85.71;56961.41;5098215;28;20132;-79
2023/04/08 05:33:48;;;;;;;36.03;17.35;;;4.70;99.90;;;-144.05;85.83;56959.28;5097430;28;20105;-82
2023/04/08 05:36:14;;;;;;;48.33;19.30;;;4.70;99.90;;;-144.05;85.87;56938.03;5080178;28;20488;-82
2023/04/08 05:38:43;;;;;;;33.97;17.35;;;4.80;99.90;;;-144.05;85.78;56946.53;5100157;28;20387;-80
2023/04/08 05:41:09;;;;;;;54.67;20.55;;;4.90;99.90;;;-144.05;85.52;56974.16;5100174;28;20054;-80
2023/04/08 05:43:35;;;;;;;54.72;21.55;;;4.90;99.90;;;-144.05;85.41;56935.91;5099654;28;20107;-81
2023/04/08 05:46:10;;;;;;;53.58;21.25;;;4.90;99.90;;;-144.05;85.34;56944.41;5102201;28;20276;-79
2023/04/08 05:48:36;;;;;;;31.80;19.00;;;4.90;99.90;;;-144.05;85.57;56933.78;5100535;28;20062;-79
2023/04/08 05:51:02;;;;;;;50.28;21.10;;;5.00;99.90;;;-144.05;85.32;56957.16;5102030;28;20071;-80
2023/04/08 05:53:29;;;;;;;40.92;20.40;;;5.00;99.90;;;-144.05;85.35;56952.91;5098482;28;20211;-78
2023/04/08 05:55:55;;;;;;;45.30;20.23;;;5.00;99.90;;;-144.05;85.27;56959.28;5100953;28;20030;-77
2023/04/08 05:58:20;;;;;;;61.38;20.80;;;5.00;99.90;;;-144.05;85.44;56946.53;5098374;28;20028;-80
2023/04/08 06:00:46;;;;;;;51.42;20.55;;;5.10;99.90;;;-144.05;85.05;56952.91;5084797;28;20123;-79
2023/04/08 06:03:12;;;;;;;39.15;18.10;;;5.10;99.90;;;-144.05;84.84;56961.41;5101224;28;20172;-80
2023/04/08 06:05:38;;;;;;;43.22;18.52;;;5.00;99.90;;;-144.05;85.03;56965.66;5102408;28;20028;-78
2023/04/08 06:08:04;;;;;;;32.08;16.95;;;5.00;99.90;;;-144.05;84.89;56946.53;5101975;28;20032;-78
2023/04/08 06:10:30;;;;;;;34.17;17.50;;;5.10;99.90;;;-144.05;84.63;56946.53;5101531;28;20058;-78
2023/04/08 06:12:56;;;;;;;33.25;17.13;;;5.00;99.90;;;-144.05;84.99;56950.78;5099336;28;20032;-83
2023/04/08 06:15:22;;;;;;;41.13;17.50;;;5.10;99.90;;;-144.05;85.09;56946.53;5080094;28;20483;-79
2023/04/08 06:17:48;;;;;;;44.35;19.63;;;5.10;99.90;;;-144.05;85.11;56950.78;5095517;28;20043;-80
2023/04/08 06:20:14;;;;;;;52.03;20.67;;;5.10;99.90;;;-144.05;85.31;56957.16;5096835;28;20497;-80
2023/04/08 06:22:40;;;;;;;56.85;21.45;;;5.10;99.90;;;-144.05;85.01;56944.41;5095143;28;20031;-81
2023/04/08 06:25:06;;;;;;;48.22;21.25;;;5.10;99.90;;;-144.05;84.82;56948.66;5097023;28;20398;-80
2023/04/08 06:27:32;;;;;;;51.08;23.20;;;5.20;99.90;;;-144.05;84.71;56933.78;5100739;28;20094;-81
2023/04/08 06:29:58;;;;;;;41.75;20.98;;;5.20;99.90;;;-144.05;84.81;56938.03;5096920;28;20032;-82
2023/04/08 06:32:24;;;;;;;47.47;21.98;;;5.20;99.90;;;-144.05;84.91;56946.53;5079034;28;20035;-81
2023/04/08 06:34:50;;;;;;;48.53;22.40;;;5.20;99.90;;;-144.05;84.97;56946.53;5079118;28;20028;-79
2023/04/08 06:37:16;;;;;;;52.78;24.00;;;5.30;99.90;;;-144.05;84.74;56965.66;5097433;28;20028;-80
2023/04/08 06:39:43;;;;;;;58.97;25.83;;;5.20;99.90;;;-144.05;84.47;56938.03;5098203;28;20031;-79
2023/04/08 06:42:09;;;;;;;58.13;25.05;;;5.30;99.90;;;-144.05;84.65;56967.78;5098766;28;20131;-80
2023/04/08 06:44:35;;;;;;;74.90;27.05;;;5.20;99.90;;;-144.05;84.61;56950.78;5096761;28;20024;-81
2023/04/08 06:47:01;;;;;;;69.53;29.08;;;5.30;99.90;;;-144.05;84.52;56948.66;5096516;28;20058;-79
2023/04/08 06:49:26;;;;;;;67.15;27.00;;;5.30;99.90;;;-144.05;84.27;56944.41;5078736;28;20032;-80
2023/04/08 06:51:52;;;;;;;66.05;27.67;;;5.30;99.90;;;-144.05;84.45;56959.28;5080092;28;20023;-82
2023/04/08 06:54:18;;;;;;;70.20;30.17;;;5.40;99.90;;;-144.05;84.19;56938.03;5098579;28;20073;-81
2023/04/08 06:56:44;;;;;;;68.15;31.05;;;5.40;99.90;;;-144.05;83.92;56935.91;5097599;28;20399;-80
2023/04/08 06:59:10;;;;;;;67.70;32.83;;;5.50;99.90;;;-144.05;83.61;56942.28;5096873;28;20070;-79
2023/04/08 07:01:36;;;;;;;74.10;34.42;;;5.50;99.90;;;-144.05;83.94;56942.28;5098556;28;20380;-79
2023/04/08 07:04:02;;;;;;;64.55;32.88;;;5.60;99.90;;;-144.05;84.01;56946.53;5099762;28;20031;-77
2023/04/08 07:06:28;;;;;;;70.43;35.15;;;5.70;99.90;;;-144.05;83.77;56916.81;5083092;28;20032;-79
2023/04/08 07:08:53;;;;;;;68.53;33.20;;;5.70;99.90;;;-144.05;83.76;56929.53;5099140;28;20039;-79
2023/04/08 07:11:20;;;;;;;62.60;33.67;;;5.80;99.90;;;-144.05;83.63;56929.53;5097526;28;20035;-81
2023/04/08 07:13:45;;;;;;;64.18;32.75;;;5.80;99.90;;;-144.05;83.53;56927.41;5097231;28;20020;-82
2023/04/08 07:16:13;;;;;;;55.50;30.88;;;5.90;99.90;;;-144.05;83.50;56921.06;5082516;28;20136;-78
2023/04/08 07:18:40;;;;;;;58.40;33.97;;;6.00;99.90;;;-144.05;83.21;56942.28;5097286;28;20055;-78
2023/04/08 07:21:06;;;;;;;53.72;29.75;;;6.00;99.90;;;-144.05;83.42;56942.28;5097248;28;20024;-79
2023/04/08 07:23:32;;;;;;;53.50;30.80;;;6.20;99.90;;;-144.05;82.99;56927.41;5098049;28;20036;-79
2023/04/08 07:26:04;;;;;;;49.20;30.10;;;6.20;99.90;;;-144.05;82.85;56921.06;5096333;28;20032;-79
2023/04/08 07:28:31;;;;;;;56.13;31.00;;;6.30;99.90;;;-144.05;83.19;56942.28;5097272;28;20088;-79
2023/04/08 07:31:10;;;;;;;53.97;31.67;;;6.90;99.90;;;-144.05;82.47;56904.06;5102854;28;20039;-79
2023/04/08 07:33:36;;;;;;;34.55;22.60;;;7.40;99.90;;;-144.05;78.83;56923.19;5093149;28;20051;-79
2023/04/08 07:36:02;;;;;;;35.40;24.13;;;7.30;99.90;;;-144.05;78.50;56933.78;5077989;28;20020;-78
2023/04/08 07:38:28;;;;;;;37.85;23.10;;;7.20;99.90;;;-144.05;78.71;56921.06;5095716;28;20468;-78
2023/04/08 07:40:54;;;;;;;27.75;20.45;;;7.20;99.90;;;-144.05;78.71;56942.28;5095914;28;20035;-78
2023/04/08 07:43:20;;;;;;;26.42;18.75;;;7.20;99.90;;;-144.05;78.52;56921.06;5079908;28;20126;-80
2023/04/08 07:45:46;;;;;;;25.20;18.13;;;7.10;99.90;;;-144.05;78.15;56921.06;5096665;28;20047;-79
2023/04/08 07:48:12;;;;;;;27.13;17.67;;;7.10;99.90;;;-144.05;77.54;56944.41;5097299;28;20070;-80
2023/04/08 07:50:38;;;;;;;27.10;18.05;;;7.00;99.90;;;-144.05;77.38;56923.19;5095494;28;20111;-81
2023/04/08 07:53:03;;;;;;;25.08;17.58;;;6.90;99.90;;;-144.05;76.97;56933.78;5095281;28;20024;-79
2023/04/08 07:55:33;;;;;;;26.40;17.15;;;6.80;99.90;;;-144.05;77.68;56944.41;5094356;28;20024;-79
2023/04/08 07:58:00;;;;;;;25.67;18.10;;;6.80;99.90;;;-144.05;77.51;56935.91;5100289;28;20032;-79
2023/04/08 08:00:29;;;;;;;25.77;17.85;;;6.70;99.90;;;-144.05;77.09;56938.03;5101161;28;20028;-79
2023/04/08 08:02:55;;;;;;;26.52;17.25;;;6.80;99.90;;;-144.05;75.58;56938.03;5098729;28;20055;-81
2023/04/08 08:05:21;;;;;;;23.08;16.88;;;6.70;99.90;;;-144.05;76.37;56944.41;5100161;28;20031;-79
2023/04/08 08:07:47;;;;;;;23.73;17.10;;;6.70;99.90;;;-144.05;76.68;56935.91;5105252;28;20028;-80
2023/04/08 08:10:13;;;;;;;24.33;17.63;;;6.70;99.90;;;-144.05;76.66;56906.19;5112032;28;20035;-80
2023/04/08 08:12:38;;;;;;;26.35;18.40;;;6.70;99.90;;;-144.05;76.35;56910.44;5095981;28;20036;-78
2023/04/08 08:15:05;;;;;;;25.80;17.90;;;6.80;99.90;;;-144.05;75.56;56942.28;5114048;28;20028;-79
2023/04/08 08:17:32;;;;;;;24.30;16.70;;;6.70;99.90;;;-144.05;74.65;56940.16;5109984;28;20092;-81
2023/04/08 08:20:03;;;;;;;22.35;15.43;;;6.80;99.90;;;-144.05;73.50;56910.44;5104753;28;20024;-77
2023/04/08 08:22:29;;;;;;;21.48;15.60;;;6.90;99.90;;;-144.05;73.72;56918.94;5105139;28;20039;-82
2023/04/08 08:24:58;;;;;;;25.45;15.20;;;7.10;99.90;;;-144.05;73.32;56923.19;5102119;28;20418;-82
2023/04/08 08:27:25;;;;;;;18.85;14.63;;;7.10;99.90;;;-144.05;72.17;56942.28;5102958;28;20051;-81
2023/04/08 08:29:51;;;;;;;19.88;14.70;;;7.20;99.90;;;-144.05;72.12;56933.78;5101314;28;20062;-82
2023/04/08 08:32:18;;;;;;;19.90;13.52;;;7.20;99.90;;;-144.05;71.62;56931.66;5103639;28;20024;-81
2023/04/08 08:34:43;;;;;;;20.27;13.95;;;7.10;99.90;;;-144.05;71.71;56950.78;5086708;28;20023;-82
2023/04/08 08:37:09;;;;;;;18.85;13.35;;;7.10;99.90;;;-144.05;71.79;56959.28;5104730;28;20024;-78
2023/04/08 08:39:35;;;;;;;17.02;12.23;;;7.30;99.90;;;-144.05;70.66;56938.03;5106789;28;20093;-81
2023/04/08 08:42:01;;;;;;;20.15;12.52;;;7.50;99.90;;;-144.05;69.19;56925.28;5103159;28;20032;-81
2023/04/08 08:44:29;;;;;;;16.25;11.32;;;7.60;99.90;;;-144.05;66.17;56918.94;5105086;28;20494;-80
2023/04/08 08:46:55;;;;;;;17.50;11.27;;;7.70;99.90;;;-144.05;67.51;56933.78;5085577;28;20178;-78
2023/04/08 08:49:22;;;;;;;22.13;12.05;;;7.80;99.90;;;-144.05;66.61;56921.06;5086082;28;20479;-81
2023/04/08 08:51:51;;;;;;;17.42;11.55;;;8.10;99.90;;;-144.05;64.84;56897.69;5104513;28;20028;-80
2023/04/08 08:54:17;;;;;;;13.73;10.63;;;8.10;99.90;;;-144.05;64.68;56904.06;5086526;28;20020;-81
2023/04/08 08:56:43;;;;;;;14.35;9.90;;;8.00;99.90;;;-144.05;64.58;56944.41;5104640;28;20376;-82
2023/04/08 08:59:09;;;;;;;13.32;10.13;;;8.00;99.90;;;-144.05;64.67;56935.91;5086901;28;20043;-82
2023/04/08 09:01:40;;;;;;;13.02;10.82;;;7.90;99.90;;;-144.05;64.20;56912.56;5104959;28;20051;-80
2023/04/08 09:04:18;;;;;;;15.48;10.27;;;7.80;99.90;;;-144.05;64.67;56923.19;5085982;28;20388;-78
2023/04/08 09:07:03;;;;;;;13.23;9.63;;;7.80;99.90;;;-144.05;64.31;56910.44;5084619;28;20088;-79
2023/04/08 09:09:49;;;;;;;13.98;10.13;;;7.70;99.90;;;-144.05;65.45;56923.19;5084078;28;20047;-80
2023/04/08 09:12:15;;;;;;;14.57;9.80;;;7.70;99.90;;;-144.05;66.16;56957.16;5102266;28;20035;-80
2023/04/08 09:14:41;;;;;;;17.02;10.13;;;7.70;99.90;;;-144.05;66.46;56923.19;5100167;28;20036;-81
2023/04/08 09:17:07;;;;;;;15.07;10.05;;;7.70;99.90;;;-144.05;66.74;56933.78;5099272;28;20047;-79
2023/04/08 09:19:33;;;;;;;16.40;12.02;;;7.70;99.90;;;-144.05;67.08;56940.16;5099534;28;20158;-79
2023/04/08 09:22:09;;;;;;;13.27;9.77;;;7.80;99.90;;;-144.05;66.96;56933.78;5099793;28;20056;-81
2023/04/08 09:24:37;;;;;;;14.27;9.73;;;7.90;99.90;;;-144.05;66.96;56940.16;5101577;28;20024;-80
2023/04/08 09:27:06;;;;;;;13.05;9.15;;;8.00;99.90;;;-144.05;65.97;56938.03;5087401;28;20028;-81
2023/04/08 09:29:33;;;;;;;14.05;9.88;;;7.90;99.90;;;-144.05;65.90;56959.28;5087109;28;20307;-80
2023/04/08 09:32:00;;;;;;;13.20;9.25;;;7.90;99.90;;;-144.05;65.58;56942.28;5104558;28;20024;-82
2023/04/08 09:34:31;;;;;;;15.10;9.32;;;8.00;99.90;;;-144.05;65.90;56916.81;5084641;28;20023;-79
2023/04/08 09:36:56;;;;;;;12.55;9.30;;;8.00;99.90;;;-144.05;66.14;56961.41;5103671;28;20032;-80
2023/04/08 09:39:23;;;;;;;11.95;9.30;;;8.20;99.90;;;-144.05;64.47;56957.16;5085326;28;20498;-80
2023/04/08 09:41:51;;;;;;;12.10;9.38;;;8.10;99.90;;;-144.05;65.19;56929.53;5103572;28;20403;-79
2023/04/08 09:44:20;;;;;;;15.00;8.95;;;8.20;99.90;;;-144.05;64.92;56927.41;5083048;28;20024;-79
2023/04/08 09:46:49;;;;;;;13.10;9.43;;;8.20;99.90;;;-144.05;64.88;56933.78;5082461;28;20020;-80
2023/04/08 09:49:28;;;;;;;14.82;9.60;;;8.30;99.90;;;-144.05;64.50;56946.53;5099927;28;20117;-79
2023/04/08 09:52:16;;;;;;;16.27;9.80;;;8.30;99.90;;;-144.05;64.57;56906.19;5083297;28;20037;-80
2023/04/08 09:55:03;;;;;;;15.48;10.15;;;8.40;99.90;;;-144.05;64.08;56942.28;5102138;28;20024;-80
2023/04/08 09:57:56;;;;;;;13.77;9.93;;;8.40;99.90;;;-144.05;63.89;56944.41;5100565;28;20099;-80
2023/04/08 10:00:33;;;;;;;14.50;10.45;;;8.20;99.90;;;-144.05;64.47;56925.28;5102559;28;20300;-80
2023/04/08 10:03:39;;;;;;;14.10;10.50;;;8.20;99.90;;;-144.05;64.56;56927.41;5085416;28;20028;-78